Time;durP1;ratioP1;P1;durP2;ratioP2;P2;SDS_P1;SDS_P2;PMS_P1;PMS_P2;Temp;Humidity;BMP_temperature;BMP_pressure;BME280_temperature;BME280_humidity;BME280_pressure;Samples;Min_cycle;Max_cycle;Signal;HPM_P1;HPM_P2
2022/02/21 00:00:20;;;;;;;19.30;4.70;;;;;;;7.05;82.21;99571.44;5012436;28;20052;-43
2022/02/21 00:02:50;;;;;;;16.85;5.22;;;;;;;7.06;82.40;99548.69;5015883;28;20046;-44
2022/02/21 00:05:18;;;;;;;18.27;4.70;;;;;;;7.08;80.62;99565.47;5013567;28;20424;-42
2022/02/21 00:07:47;;;;;;;16.88;4.60;;;;;;;7.05;79.49;99568.75;5012592;28;20081;-42
2022/02/21 00:10:16;;;;;;;16.10;4.22;;;;;;;7.00;78.72;99576.88;5013498;28;20045;-43
2022/02/21 00:12:45;;;;;;;15.20;4.43;;;;;;;6.99;77.96;99591.50;5015698;28;20046;-44
2022/02/21 00:15:17;;;;;;;17.73;4.88;;;;;;;6.98;75.75;99576.34;5011985;28;20073;-42
2022/02/21 00:17:45;;;;;;;16.33;4.82;;;;;;;6.93;75.58;99600.72;5012487;28;20050;-42
2022/02/21 00:20:13;;;;;;;18.33;5.25;;;;;;;6.96;74.48;99602.88;5013264;28;20559;-42
2022/02/21 00:22:41;;;;;;;17.67;4.65;;;;;;;6.90;75.97;99591.22;5027387;28;20407;-42
2022/02/21 00:25:09;;;;;;;16.88;4.43;;;;;;;6.89;76.15;99599.66;5031950;28;20037;-44
2022/02/21 00:27:37;;;;;;;16.25;4.18;;;;;;;6.88;76.79;99606.13;5033034;28;20047;-43
2022/02/21 00:30:08;;;;;;;12.95;3.65;;;;;;;6.89;77.88;99607.78;5033324;28;20042;-42
2022/02/21 00:32:36;;;;;;;11.95;3.80;;;;;;;6.91;79.21;99595.56;5020878;28;20119;-42
2022/02/21 00:35:04;;;;;;;13.73;3.95;;;;;;;7.02;77.92;99618.00;5028344;28;20060;-43
2022/02/21 00:37:32;;;;;;;12.95;3.97;;;;;;;6.98;77.98;99625.09;5012186;28;20489;-44
2022/02/21 00:39:59;;;;;;;15.57;4.50;;;;;;;6.98;78.76;99633.22;5013211;28;20034;-44
2022/02/21 00:42:27;;;;;;;14.25;3.60;;;;;;;6.95;78.61;99655.41;5028668;28;20041;-43
2022/02/21 00:44:57;;;;;;;13.55;3.83;;;;;;;6.93;78.62;99650.28;5031870;28;20124;-43
2022/02/21 00:47:26;;;;;;;16.67;4.20;;;;;;;6.89;78.13;99678.16;5035763;28;20516;-44
2022/02/21 00:49:54;;;;;;;16.48;3.95;;;;;;;6.83;77.88;99661.94;5036915;28;20049;-43
2022/02/21 00:52:23;;;;;;;17.27;4.10;;;;;;;6.82;78.87;99673.00;5034697;28;20038;-45
2022/02/21 00:54:51;;;;;;;19.48;4.68;;;;;;;6.83;79.72;99675.47;5034787;28;20411;-43
2022/02/21 00:57:18;;;;;;;18.80;4.70;;;;;;;6.79;78.04;99698.75;5037014;28;20377;-45
2022/02/21 00:59:46;;;;;;;13.38;4.10;;;;;;;6.74;77.08;99679.78;5036524;28;20132;-42
2022/02/21 01:02:14;;;;;;;21.98;5.03;;;;;;;6.73;77.02;99702.50;5031229;28;20049;-44
2022/02/21 01:04:42;;;;;;;19.13;4.85;;;;;;;6.66;74.79;99726.31;5023873;28;20133;-42
2022/02/21 01:07:09;;;;;;;14.40;4.35;;;;;;;6.70;74.45;99684.13;5035457;28;20050;-43
2022/02/21 01:09:37;;;;;;;17.60;4.55;;;;;;;6.64;74.99;99695.19;5036896;28;20069;-44
2022/02/21 01:12:06;;;;;;;17.13;4.32;;;;;;;6.63;74.70;99704.41;5023959;28;20053;-44
2022/02/21 01:14:33;;;;;;;17.30;4.78;;;;;;;6.64;74.92;99690.63;5017641;28;20030;-43
2022/02/21 01:17:01;;;;;;;14.40;3.42;;;;;;;6.68;76.56;99678.16;5016785;28;20050;-44
2022/02/21 01:19:29;;;;;;;18.52;4.55;;;;;;;6.70;75.26;99697.66;5017387;28;20120;-45
2022/02/21 01:21:56;;;;;;;15.93;4.70;;;;;;;6.64;76.42;99714.97;5033884;28;20042;-42
2022/02/21 01:24:24;;;;;;;19.23;4.90;;;;;;;6.56;75.00;99715.50;5035492;28;20407;-43
2022/02/21 01:26:51;;;;;;;17.05;4.43;;;;;;;6.58;75.20;99732.28;5033564;28;20041;-42
2022/02/21 01:29:19;;;;;;;15.80;4.15;;;;;;;6.55;76.58;99703.06;5035090;28;20132;-41
2022/02/21 01:31:47;;;;;;;16.92;4.43;;;;;;;6.60;75.63;99741.75;5034235;28;20038;-41
2022/02/21 01:34:15;;;;;;;18.17;4.15;;;;;;;6.55;75.87;99733.63;5035573;28;20053;-43
2022/02/21 01:36:43;;;;;;;15.73;4.40;;;;;;;6.59;76.26;99736.59;5024958;28;20120;-43
2022/02/21 01:39:10;;;;;;;20.75;5.05;;;;;;;6.53;75.94;99748.50;5016290;28;20483;-41
2022/02/21 01:41:38;;;;;;;24.67;6.85;;;;;;;6.42;74.76;99752.28;5030965;28;20128;-43
2022/02/21 01:44:11;;;;;;;16.15;4.05;;;;;;;6.40;75.12;99742.53;5034530;28;20056;-43
2022/02/21 01:46:40;;;;;;;20.25;5.45;;;;;;;6.38;73.66;99746.59;5029543;28;20113;-43
2022/02/21 01:49:09;;;;;;;15.32;4.85;;;;;;;6.41;73.20;99751.47;5015782;28;20050;-43
2022/02/21 01:51:37;;;;;;;19.20;4.85;;;;;;;6.33;72.48;99755.50;5017078;28;20042;-43
2022/02/21 01:54:07;;;;;;;18.70;5.32;;;;;;;6.29;73.19;99757.09;5014659;28;20070;-42
2022/02/21 01:56:35;;;;;;;12.85;4.65;;;;;;;6.26;73.27;99765.75;5014607;28;20038;-45
2022/02/21 01:59:04;;;;;;;19.88;5.45;;;;;;;6.16;75.34;99795.47;5035462;28;20583;-43
2022/02/21 02:01:31;;;;;;;18.45;5.00;;;;;;;6.00;75.17;99775.66;5001673;28;20046;-42
2022/02/21 02:04:00;;;;;;;18.25;4.68;;;;;;;5.98;75.33;99769.69;5015825;28;20045;-41
2022/02/21 02:06:29;;;;;;;18.45;4.85;;;;;;;5.98;74.87;99762.38;5014620;28;20045;-44
2022/02/21 02:08:58;;;;;;;16.25;4.32;;;;;;;6.02;74.29;99788.94;5016493;28;20037;-42
2022/02/21 02:11:32;;;;;;;14.43;4.45;;;;;;;5.98;72.80;99762.38;5016640;28;20412;-42
2022/02/21 02:13:59;;;;;;;13.00;4.00;;;;;;;5.97;73.37;99768.09;5015700;28;20049;-43
2022/02/21 02:16:27;;;;;;;16.25;4.05;;;;;;;5.94;73.02;99769.41;5014303;28;20403;-43
2022/02/21 02:18:59;;;;;;;20.50;4.45;;;;;;;5.97;73.75;99760.78;5015506;28;20080;-42
2022/02/21 02:21:27;;;;;;;16.83;4.60;;;;;;;5.96;72.88;99774.53;5032175;28;20042;-42
2022/02/21 02:23:56;;;;;;;16.48;4.85;;;;;;;5.97;72.41;99777.00;5033990;28;20041;-42
2022/02/21 02:26:24;;;;;;;16.88;4.88;;;;;;;5.92;71.79;99773.44;5027375;28;20041;-42
2022/02/21 02:28:53;;;;;;;13.27;4.00;;;;;;;5.97;72.10;99765.38;5035355;28;20046;-44
2022/02/21 02:31:21;;;;;;;16.90;4.22;;;;;;;5.97;70.77;99768.88;5033991;28;20042;-43
2022/02/21 02:33:49;;;;;;;12.18;4.13;;;;;;;5.92;69.69;99779.66;5034735;28;20053;-43
2022/02/21 02:36:17;;;;;;;19.52;4.50;;;;;;;5.92;68.97;99763.44;5032354;28;20033;-43
2022/02/21 02:38:44;;;;;;;17.05;3.97;;;;;;;5.95;69.52;99762.94;5034656;28;20042;-42
2022/02/21 02:41:12;;;;;;;15.95;4.78;;;;;;;5.96;69.56;99772.69;5033650;28;20088;-42
2022/02/21 02:43:40;;;;;;;14.32;4.25;;;;;;;5.99;70.61;99806.50;5034696;28;20042;-43
2022/02/21 02:46:08;;;;;;;17.13;4.75;;;;;;;5.83;72.01;99783.94;5029868;28;20067;-43
2022/02/21 02:48:36;;;;;;;14.65;4.05;;;;;;;5.78;73.75;99789.31;5028220;28;20065;-43
2022/02/21 02:51:03;;;;;;;15.35;4.50;;;;;;;5.65;73.29;99790.59;5015126;28;20054;-43
2022/02/21 02:53:31;;;;;;;11.35;3.92;;;;;;;5.70;74.33;99787.91;5013840;28;20048;-43
2022/02/21 02:55:59;;;;;;;12.75;4.25;;;;;;;5.72;74.27;99772.25;5015169;28;20076;-42
2022/02/21 02:58:26;;;;;;;12.40;4.20;;;;;;;5.87;72.05;99787.75;5034735;28;20132;-44
2022/02/21 03:00:54;;;;;;;15.65;4.22;;;;;;;5.79;72.11;99780.09;5032958;28;20041;-42
2022/02/21 03:03:22;;;;;;;15.32;4.07;;;;;;;5.83;72.19;99777.72;5033124;28;20050;-44
2022/02/21 03:05:49;;;;;;;20.08;4.90;;;;;;;5.89;70.47;99768.53;5032602;28;20042;-44
2022/02/21 03:08:17;;;;;;;22.25;5.18;;;;;;;5.79;68.65;99755.78;5033822;28;20048;-42
2022/02/21 03:10:45;;;;;;;16.55;4.88;;;;;;;5.79;67.32;99773.91;5022012;28;20050;-43
2022/02/21 03:13:12;;;;;;;17.77;4.90;;;;;;;5.73;67.51;99787.38;5014745;28;20053;-42
2022/02/21 03:15:40;;;;;;;17.08;5.00;;;;;;;5.73;66.76;99770.38;5017227;28;20034;-42
2022/02/21 03:18:09;;;;;;;13.55;4.32;;;;;;;5.75;67.46;99763.63;5026481;28;20120;-43
2022/02/21 03:20:36;;;;;;;12.30;4.03;;;;;;;5.78;67.77;99778.50;5032556;28;20128;-44
2022/02/21 03:23:04;;;;;;;16.95;4.57;;;;;;;5.77;67.14;99768.75;5032908;28;20041;-42
2022/02/21 03:25:32;;;;;;;13.63;4.22;;;;;;;5.78;67.58;99770.38;5032139;28;20066;-44
2022/02/21 03:27:59;;;;;;;13.90;3.95;;;;;;;5.66;68.19;99773.28;5033764;28;20403;-44
2022/02/21 03:30:27;;;;;;;18.15;5.20;;;;;;;5.67;68.20;99787.59;5031227;28;20041;-41
2022/02/21 03:32:55;;;;;;;14.10;3.72;;;;;;;5.64;68.43;99810.56;5033829;28;20042;-43
2022/02/21 03:35:22;;;;;;;19.63;4.63;;;;;;;5.58;68.11;99792.72;5026482;28;20050;-42
2022/02/21 03:37:50;;;;;;;18.35;5.00;;;;;;;5.58;68.70;99810.78;5014137;28;20488;-44
2022/02/21 03:40:18;;;;;;;16.45;4.82;;;;;;;5.63;68.90;99790.03;5020916;28;20125;-42
2022/02/21 03:42:45;;;;;;;16.65;4.45;;;;;;;5.59;68.08;99796.22;5033633;28;20495;-44
2022/02/21 03:45:13;;;;;;;20.83;5.25;;;;;;;5.57;68.03;99803.75;5031897;28;20065;-43
2022/02/21 03:47:41;;;;;;;13.07;3.97;;;;;;;5.61;68.29;99807.59;5032475;28;20132;-44
2022/02/21 03:50:09;;;;;;;20.65;5.78;;;;;;;5.55;68.04;99829.13;5031979;28;20038;-44
2022/02/21 03:52:36;;;;;;;22.77;5.45;;;;;;;5.53;69.38;99820.50;5033388;28;20510;-42
2022/02/21 03:55:05;;;;;;;19.83;5.22;;;;;;;5.51;70.79;99811.84;5033508;28;20096;-43
2022/02/21 03:57:32;;;;;;;18.73;5.57;;;;;;;5.41;72.36;99811.78;5016234;28;20038;-41
2022/02/21 04:00:00;;;;;;;18.48;5.05;;;;;;;5.35;73.38;99829.00;5035591;28;20049;-42
2022/02/21 04:02:38;;;;;;;19.90;5.43;;;;;;;5.29;73.07;99822.75;5033310;28;20446;-43
2022/02/21 04:05:06;;;;;;;19.83;4.93;;;;;;;5.32;74.31;99816.00;5033350;28;20033;-42
2022/02/21 04:07:34;;;;;;;18.15;4.88;;;;;;;5.31;74.18;99814.38;5020102;28;20496;-44
2022/02/21 04:10:02;;;;;;;18.30;4.78;;;;;;;5.33;73.95;99798.72;5012834;28;20034;-44
2022/02/21 04:12:29;;;;;;;16.30;5.25;;;;;;;5.32;71.67;99808.72;5014427;28;20037;-41
2022/02/21 04:14:58;;;;;;;19.58;5.25;;;;;;;5.33;71.21;99804.13;5013578;28;20056;-45
2022/02/21 04:17:26;;;;;;;15.07;4.80;;;;;;;5.34;70.04;99816.56;5013684;28;20042;-42
2022/02/21 04:19:54;;;;;;;17.02;5.05;;;;;;;5.34;69.88;99806.59;5013917;28;20069;-41
2022/02/21 04:22:21;;;;;;;17.70;4.50;;;;;;;5.35;69.68;99804.69;5014311;28;20484;-43
2022/02/21 04:24:49;;;;;;;18.05;5.30;;;;;;;5.37;69.48;99810.66;5013740;28;20129;-43
2022/02/21 04:27:16;;;;;;;17.83;4.75;;;;;;;5.41;69.26;99800.97;5013445;28;20393;-42
2022/02/21 04:29:44;;;;;;;17.88;4.70;;;;;;;5.44;69.65;99800.44;5014494;28;20128;-43
2022/02/21 04:32:12;;;;;;;19.17;4.65;;;;;;;5.45;69.97;99801.25;5021519;28;20046;-43
2022/02/21 04:34:39;;;;;;;17.42;4.55;;;;;;;5.44;69.79;99815.84;5031699;28;20508;-42
2022/02/21 04:37:07;;;;;;;11.63;4.03;;;;;;;5.53;69.06;99815.09;5033195;28;20049;-42
2022/02/21 04:39:35;;;;;;;16.45;4.75;;;;;;;5.38;69.08;99828.47;5033115;28;20045;-42
2022/02/21 04:42:03;;;;;;;16.15;4.80;;;;;;;5.31;70.12;99822.47;5026992;28;20046;-44
2022/02/21 04:44:30;;;;;;;17.15;5.25;;;;;;;5.28;70.58;99829.22;5013226;28;20118;-44
2022/02/21 04:46:58;;;;;;;15.52;5.15;;;;;;;5.25;70.54;99818.94;5012960;28;20042;-42
2022/02/21 04:49:26;;;;;;;17.00;4.40;;;;;;;5.24;71.23;99824.56;5013360;28;20045;-43
2022/02/21 04:51:54;;;;;;;16.42;4.03;;;;;;;5.24;71.86;99832.66;5014167;28;20041;-42
2022/02/21 04:54:21;;;;;;;16.23;3.88;;;;;;;5.26;72.09;99830.53;5032447;28;20144;-42
2022/02/21 04:56:49;;;;;;;16.35;4.88;;;;;;;5.22;71.73;99816.75;5033243;28;20080;-42
2022/02/21 04:59:17;;;;;;;18.23;4.63;;;;;;;5.23;72.84;99814.84;5032719;28;20504;-43
2022/02/21 05:01:44;;;;;;;16.00;4.35;;;;;;;5.23;72.82;99814.84;5046429;28;20046;-42
2022/02/21 05:04:12;;;;;;;15.90;4.78;;;;;;;5.28;72.46;99823.81;5031010;28;20125;-42
2022/02/21 05:06:39;;;;;;;15.32;4.35;;;;;;;5.29;72.13;99832.72;5032632;28;20399;-42
2022/02/21 05:09:07;;;;;;;14.38;4.40;;;;;;;5.21;71.18;99838.59;5031526;28;20099;-44
2022/02/21 05:11:35;;;;;;;13.80;4.13;;;;;;;5.22;70.43;99835.66;5020256;28;20037;-43
2022/02/21 05:14:02;;;;;;;13.77;3.92;;;;;;;5.20;69.83;99840.50;5020940;28;20052;-44
2022/02/21 05:16:30;;;;;;;14.15;4.55;;;;;;;5.31;69.66;99841.38;5032390;28;20451;-40
2022/02/21 05:19:02;;;;;;;17.63;3.75;;;;;;;5.24;69.82;99832.66;5031591;28;20144;-42
2022/02/21 05:21:30;;;;;;;14.93;3.92;;;;;;;5.22;70.05;99837.50;5031672;28;20095;-44
2022/02/21 05:23:59;;;;;;;12.75;3.92;;;;;;;5.18;69.16;99836.41;5027653;28;20044;-45
2022/02/21 05:26:27;;;;;;;16.95;4.10;;;;;;;5.19;69.03;99838.03;5012939;28;20144;-43
2022/02/21 05:28:54;;;;;;;13.27;4.05;;;;;;;5.17;69.46;99834.78;5030977;28;20128;-43
2022/02/21 05:31:22;;;;;;;15.45;4.63;;;;;;;5.22;69.60;99841.06;5036869;28;20048;-41
2022/02/21 05:33:50;;;;;;;15.35;4.22;;;;;;;5.21;69.12;99825.09;5016331;28;20153;-43
2022/02/21 05:36:18;;;;;;;13.77;3.72;;;;;;;5.18;69.18;99833.72;5028862;28;20056;-43
2022/02/21 05:38:45;;;;;;;14.43;4.03;;;;;;;5.24;69.12;99827.28;5016509;28;20413;-43
2022/02/21 05:41:13;;;;;;;13.13;4.22;;;;;;;5.23;68.89;99817.56;5017265;28;20038;-43
2022/02/21 05:43:40;;;;;;;14.00;3.78;;;;;;;5.24;69.00;99822.72;5016011;28;20041;-43
2022/02/21 05:46:08;;;;;;;15.95;4.10;;;;;;;5.31;69.10;99823.28;5027234;28;20044;-43
2022/02/21 05:48:36;;;;;;;12.43;4.45;;;;;;;5.23;68.43;99814.84;5021300;28;20038;-44
2022/02/21 05:51:04;;;;;;;12.32;4.28;;;;;;;5.23;68.46;99814.84;5023643;28;20386;-44
2022/02/21 05:53:31;;;;;;;15.30;4.13;;;;;;;5.23;69.04;99812.16;5023838;28;20132;-43
2022/02/21 05:55:59;;;;;;;12.38;4.15;;;;;;;5.24;69.14;99811.06;5022419;28;20100;-45
2022/02/21 05:58:27;;;;;;;13.50;4.10;;;;;;;5.27;68.80;99821.38;5031066;28;20053;-45
2022/02/21 06:00:55;;;;;;;14.48;3.90;;;;;;;5.23;68.91;99812.97;5017964;28;20042;-44
2022/02/21 06:03:23;;;;;;;12.02;4.05;;;;;;;5.23;69.18;99812.16;5045301;28;20044;-45
2022/02/21 06:05:51;;;;;;;15.63;4.28;;;;;;;5.27;69.18;99810.56;5015794;28;20088;-43
2022/02/21 06:08:19;;;;;;;14.65;4.28;;;;;;;5.27;69.10;99803.28;5027754;28;20141;-43
2022/02/21 06:10:46;;;;;;;14.40;4.45;;;;;;;5.29;68.87;99808.41;5030891;28;20051;-45
2022/02/21 06:13:14;;;;;;;19.85;5.18;;;;;;;5.33;68.92;99812.22;5015454;28;20050;-46
2022/02/21 06:15:41;;;;;;;13.75;3.95;;;;;;;5.38;70.73;99801.47;5032844;28;20048;-43
2022/02/21 06:18:09;;;;;;;16.63;4.45;;;;;;;5.38;69.31;99806.88;5027306;28;20034;-43
2022/02/21 06:20:37;;;;;;;14.38;4.35;;;;;;;5.37;69.22;99802.53;4336186;28;10000698;-45
2022/02/21 06:23:05;;;;;;;14.00;4.03;;;;;;;5.30;69.13;99805.47;5011991;28;20061;-44
2022/02/21 06:25:32;;;;;;;17.80;4.90;;;;;;;5.37;69.65;99815.25;5012993;28;20038;-46
2022/02/21 06:28:00;;;;;;;15.07;3.75;;;;;;;5.33;69.77;99794.13;5029701;28;20045;-45
2022/02/21 06:30:28;;;;;;;11.40;4.10;;;;;;;5.34;69.02;99805.78;5031601;28;20050;-45
2022/02/21 06:32:55;;;;;;;15.85;4.30;;;;;;;5.34;69.25;99798.47;5011402;28;20684;-42
2022/02/21 06:35:23;;;;;;;15.73;4.30;;;;;;;5.32;69.13;99807.91;5011462;28;20046;-44
2022/02/21 06:37:52;;;;;;;16.45;4.45;;;;;;;5.31;69.31;99809.78;5024314;28;20463;-44
2022/02/21 06:40:20;;;;;;;15.70;4.68;;;;;;;5.28;69.24;99804.09;5023130;28;20069;-42
2022/02/21 06:42:48;;;;;;;11.20;3.65;;;;;;;5.33;68.44;99812.22;5025461;28;20049;-43
2022/02/21 06:45:16;;;;;;;17.35;4.28;;;;;;;5.29;68.95;99816.50;5031553;28;20372;-43
2022/02/21 06:47:50;;;;;;;15.60;4.03;;;;;;;5.25;68.86;99804.63;5022712;28;20061;-43
2022/02/21 06:50:18;;;;;;;15.98;4.18;;;;;;;5.35;69.24;99801.97;5029223;28;20500;-43
2022/02/21 06:52:46;;;;;;;15.15;4.28;;;;;;;5.34;68.80;99795.78;5029382;28;20049;-44
2022/02/21 06:55:14;;;;;;;15.00;4.13;;;;;;;5.34;68.49;99801.19;5017019;28;20048;-44
2022/02/21 06:57:47;;;;;;;18.90;4.78;;;;;;;5.31;68.37;99800.88;5012589;28;20034;-44
2022/02/21 07:00:16;;;;;;;15.10;4.32;;;;;;;5.20;68.59;99797.28;5012799;28;20038;-43
2022/02/21 07:02:44;;;;;;;15.32;4.60;;;;;;;5.19;69.67;99786.72;5013194;28;20046;-44
2022/02/21 07:05:12;;;;;;;13.70;4.32;;;;;;;5.17;68.92;99789.72;5011486;28;20050;-42
2022/02/21 07:07:40;;;;;;;14.52;4.43;;;;;;;5.18;69.02;99799.41;5009902;28;20436;-43
2022/02/21 07:10:08;;;;;;;14.57;4.13;;;;;;;5.26;69.30;99798.13;5012871;28;20136;-43
2022/02/21 07:12:36;;;;;;;15.52;4.65;;;;;;;5.26;69.44;99790.84;5014617;28;20129;-44
2022/02/21 07:15:05;;;;;;;18.08;4.30;;;;;;;5.34;70.11;99811.16;5029434;28;20038;-44
2022/02/21 07:17:37;;;;;;;12.65;4.25;;;;;;;5.39;71.27;99796.88;5017000;28;20077;-43
2022/02/21 07:20:06;;;;;;;16.00;4.38;;;;;;;5.63;72.27;99789.19;5005822;28;20045;-42
2022/02/21 07:22:34;;;;;;;16.00;4.40;;;;;;;5.63;72.98;99797.31;5049356;28;20041;-45
2022/02/21 07:25:03;;;;;;;16.40;4.28;;;;;;;5.52;71.12;99791.84;5033308;28;20041;-45
2022/02/21 07:27:30;;;;;;;13.02;4.28;;;;;;;5.42;71.84;99785.56;5032333;28;20051;-42
2022/02/21 07:29:58;;;;;;;17.90;4.93;;;;;;;5.44;72.73;99799.63;5015048;28;20140;-43
2022/02/21 07:32:25;;;;;;;11.93;3.58;;;;;;;5.41;74.06;99795.56;5030877;28;20569;-48
2022/02/21 07:34:53;;;;;;;17.67;4.60;;;;;;;5.44;73.33;99786.94;5032135;28;20084;-47
2022/02/21 07:37:21;;;;;;;15.48;4.57;;;;;;;5.52;73.65;99786.44;5018125;28;20040;-43
2022/02/21 07:39:48;;;;;;;15.13;4.43;;;;;;;5.47;73.78;99786.41;5017482;28;20510;-48
2022/02/21 07:42:16;;;;;;;14.93;4.20;;;;;;;5.51;73.21;99779.41;5012820;28;20073;-42
2022/02/21 07:44:44;;;;;;;17.35;4.47;;;;;;;5.51;74.17;99782.13;5032162;28;20156;-44
2022/02/21 07:47:12;;;;;;;13.95;4.18;;;;;;;5.48;73.00;99779.09;5024599;28;20108;-43
2022/02/21 07:49:39;;;;;;;16.05;4.68;;;;;;;5.43;73.73;99774.47;5021431;28;20478;-42
2022/02/21 07:52:07;;;;;;;15.43;4.43;;;;;;;5.50;73.28;99782.38;5028565;28;20041;-43
2022/02/21 07:54:35;;;;;;;15.68;3.90;;;;;;;5.51;72.51;99782.13;5028454;28;20046;-44
2022/02/21 07:57:08;;;;;;;14.77;4.60;;;;;;;5.51;72.13;99768.59;5009546;28;20113;-45
2022/02/21 07:59:36;;;;;;;18.23;5.15;;;;;;;5.63;73.41;99754.06;5013210;28;20069;-44
2022/02/21 08:02:04;;;;;;;14.02;4.30;;;;;;;5.59;72.06;99769.19;5012256;28;20129;-44
2022/02/21 08:04:31;;;;;;;16.55;4.85;;;;;;;5.71;72.76;99767.09;5013209;28;20049;-44
2022/02/21 08:07:00;;;;;;;14.57;4.97;;;;;;;5.85;76.42;99762.06;5013316;28;20125;-45
2022/02/21 08:09:27;;;;;;;18.63;5.25;;;;;;;6.14;76.08;99765.19;5013496;28;20467;-47
2022/02/21 08:11:55;;;;;;;14.10;3.90;;;;;;;6.24;70.82;99750.88;5017050;28;20041;-45
2022/02/21 08:14:25;;;;;;;15.63;4.05;;;;;;;6.12;71.30;99762.72;5013488;28;20042;-46
2022/02/21 08:16:53;;;;;;;14.15;4.47;;;;;;;5.81;70.82;99750.94;5013111;28;20045;-45
2022/02/21 08:19:20;;;;;;;20.60;4.60;;;;;;;5.74;71.40;99744.94;5025834;28;20053;-43
2022/02/21 08:21:48;;;;;;;11.55;4.10;;;;;;;5.55;72.44;99737.28;5014894;28;20053;-46
2022/02/21 08:24:16;;;;;;;11.65;3.97;;;;;;;5.60;72.64;99738.38;5013015;28;20042;-44
2022/02/21 08:26:43;;;;;;;10.65;4.00;;;;;;;5.48;73.17;99734.00;5030129;28;20047;-43
2022/02/21 08:29:11;;;;;;;17.38;5.13;;;;;;;5.60;73.60;99732.97;5030473;28;20041;-45
2022/02/21 08:31:39;;;;;;;14.20;4.50;;;;;;;5.84;74.29;99720.66;5032638;28;20140;-44
2022/02/21 08:34:08;;;;;;;16.35;4.68;;;;;;;5.78;73.08;99723.63;5031542;28;20045;-43
2022/02/21 08:36:35;;;;;;;15.98;4.55;;;;;;;5.67;73.66;99726.25;5031252;28;20479;-44
2022/02/21 08:39:03;;;;;;;13.02;4.05;;;;;;;5.67;73.44;99717.34;5027626;28;20454;-45
2022/02/21 08:41:31;;;;;;;16.63;4.05;;;;;;;5.91;79.58;99707.72;5012932;28;20129;-44
2022/02/21 08:43:58;;;;;;;15.40;4.97;;;;;;;5.95;73.99;99703.44;5013870;28;20084;-45
2022/02/21 08:46:26;;;;;;;15.13;4.35;;;;;;;5.90;72.79;99689.88;5011448;28;20042;-44
2022/02/21 08:49:06;;;;;;;15.93;3.90;;;;;;;5.92;74.34;99706.66;5021645;28;20079;-44
2022/02/21 08:51:34;;;;;;;18.60;4.57;;;;;;;6.23;74.47;99697.84;5032963;28;20049;-45
2022/02/21 08:54:02;;;;;;;13.10;4.25;;;;;;;6.07;72.46;99697.81;5032219;28;20049;-44
2022/02/21 08:56:33;;;;;;;16.70;4.40;;;;;;;6.28;72.73;99695.97;5032734;28;20099;-43
2022/02/21 08:59:01;;;;;;;17.02;4.82;;;;;;;6.53;75.84;99708.72;5025135;28;20041;-46
2022/02/21 09:01:29;;;;;;;14.77;4.40;;;;;;;6.28;73.54;99690.56;5011894;28;20116;-44
2022/02/21 09:03:57;;;;;;;13.68;4.10;;;;;;;6.06;75.22;99688.09;5013152;28;20048;-45
2022/02/21 09:06:26;;;;;;;14.85;4.63;;;;;;;6.08;78.03;99674.28;5014518;28;20408;-44
2022/02/21 09:08:54;;;;;;;17.52;4.57;;;;;;;6.18;76.17;99669.72;5029050;28;20395;-45
2022/02/21 09:11:22;;;;;;;16.65;4.35;;;;;;;6.89;75.76;99670.03;5036583;28;20041;-47
2022/02/21 09:13:49;;;;;;;14.80;3.67;;;;;;;6.48;77.07;99651.91;5035228;28;20041;-44
2022/02/21 09:16:17;;;;;;;14.68;4.20;;;;;;;6.50;75.75;99662.47;5035826;28;20385;-48
2022/02/21 09:18:44;;;;;;;16.48;4.35;;;;;;;6.34;82.95;99640.78;5027037;28;20527;-47
2022/02/21 09:21:12;;;;;;;14.95;4.28;;;;;;;6.01;77.23;99652.09;5016219;28;20077;-44
2022/02/21 09:23:40;;;;;;;16.85;4.80;;;;;;;6.19;76.77;99651.59;5013094;28;20496;-45
2022/02/21 09:26:07;;;;;;;10.55;3.80;;;;;;;5.87;78.74;99652.56;5016347;28;20052;-45
2022/02/21 09:28:35;;;;;;;12.05;4.63;;;;;;;5.72;77.88;99658.75;5027765;28;20045;-44
2022/02/21 09:31:03;;;;;;;14.55;4.78;;;;;;;5.84;78.95;99658.50;5034741;28;20048;-45
2022/02/21 09:33:30;;;;;;;15.32;4.70;;;;;;;5.80;81.92;99646.59;5034558;28;20046;-46
2022/02/21 09:35:58;;;;;;;10.90;3.90;;;;;;;5.91;81.16;99653.66;5035387;28;20085;-46
2022/02/21 09:38:26;;;;;;;12.90;4.68;;;;;;;5.72;82.67;99644.41;5026843;28;20045;-46
2022/02/21 09:40:56;;;;;;;13.00;4.00;;;;;;;5.90;82.45;99627.72;5016158;28;20052;-45
2022/02/21 09:43:27;;;;;;;14.20;4.22;;;;;;;5.53;84.39;99641.34;5015060;28;20042;-48
2022/02/21 09:45:57;;;;;;;14.38;3.72;;;;;;;5.19;86.20;99640.91;5015608;28;20037;-48
2022/02/21 09:48:28;;;;;;;9.35;3.45;;;;;;;5.00;88.38;99614.34;4998311;28;20077;-44
2022/02/21 09:51:00;;;;;;;13.85;4.43;;;;;;;5.32;89.26;99619.66;5035136;28;20116;-48
2022/02/21 09:53:32;;;;;;;13.30;3.38;;;;;;;5.16;89.17;99611.75;5034519;28;20496;-44
2022/02/21 09:56:00;;;;;;;17.88;4.30;;;;;;;5.22;88.55;99626.88;5034476;28;20411;-45
2022/02/21 09:58:29;;;;;;;20.15;5.07;;;;;;;5.02;89.48;99609.50;5027275;28;20042;-45
2022/02/21 10:00:56;;;;;;;14.40;4.15;;;;;;;5.11;91.51;99613.34;5015922;28;20129;-44
2022/02/21 10:03:36;;;;;;;10.40;3.67;;;;;;;5.46;90.99;99602.97;5018669;28;20449;-44
2022/02/21 10:06:19;;;;;;;13.77;4.13;;;;;;;5.54;91.54;99594.34;5029008;28;20073;-47
2022/02/21 10:09:08;;;;;;;15.18;4.38;;;;;;;5.59;88.83;99594.38;5015462;28;20558;-48
2022/02/21 10:11:41;;;;;;;13.02;4.05;;;;;;;5.76;89.60;99603.06;5015367;28;20042;-45
2022/02/21 10:14:14;;;;;;;13.85;4.18;;;;;;;5.80;90.86;99603.38;5016326;28;20054;-45
2022/02/21 10:16:46;;;;;;;14.93;4.45;;;;;;;5.71;89.40;99584.13;5014404;28;20045;-44
2022/02/21 10:19:20;;;;;;;15.90;5.38;;;;;;;6.26;92.25;99595.34;5034995;28;20554;-44
2022/02/21 10:21:59;;;;;;;16.52;4.50;;;;;;;6.09;89.22;99573.97;5033511;28;20073;-43
2022/02/21 10:24:30;;;;;;;17.38;4.70;;;;;;;6.19;89.41;99581.28;5034836;28;20099;-45
2022/02/21 10:27:14;;;;;;;15.98;4.57;;;;;;;5.86;89.12;99569.03;5035036;28;20045;-46
2022/02/21 10:30:01;;;;;;;12.10;3.90;;;;;;;5.48;90.48;99590.84;5017532;28;20050;-43
2022/02/21 10:32:50;;;;;;;13.90;4.53;;;;;;;5.55;91.82;99587.88;5014407;28;20049;-42
2022/02/21 10:35:21;;;;;;;18.08;5.03;;;;;;;5.28;92.12;99604.25;5013806;28;20452;-44
2022/02/21 10:37:57;;;;;;;17.85;5.18;;;;;;;5.18;93.08;99594.22;5014092;28;20049;-46
2022/02/21 10:40:35;;;;;;;18.58;5.25;;;;;;;5.03;94.37;99610.34;5013311;28;20041;-47
2022/02/21 10:43:09;;;;;;;18.08;4.80;;;;;;;5.08;93.92;99605.75;5015026;28;20100;-46
2022/02/21 10:45:39;;;;;;;18.52;5.32;;;;;;;4.97;95.11;99601.38;5014046;28;20054;-45
2022/02/21 10:48:10;;;;;;;19.38;5.38;;;;;;;5.00;95.66;99606.25;5019629;28;20057;-45
2022/02/21 10:50:58;;;;;;;16.48;4.57;;;;;;;4.97;95.59;99606.78;5014961;28;20038;-44
2022/02/21 10:53:44;;;;;;;24.08;4.40;;;;;;;4.88;96.91;99601.06;5023211;28;20132;-45
2022/02/21 10:56:13;;;;;;;16.42;5.38;;;;;;;4.79;96.95;99612.63;5034420;28;20041;-42
2022/02/21 10:58:41;;;;;;;17.05;4.63;;;;;;;4.80;97.71;99614.22;5027566;28;20049;-45
2022/02/21 11:01:10;;;;;;;20.23;5.38;;;;;;;4.85;97.91;99611.56;5013291;28;20107;-44
2022/02/21 11:03:39;;;;;;;17.25;5.50;;;;;;;4.91;98.09;99607.84;5014688;28;20141;-45
2022/02/21 11:06:07;;;;;;;14.05;4.38;;;;;;;4.95;98.20;99605.41;5013648;28;20060;-46
2022/02/21 11:08:36;;;;;;;14.30;4.43;;;;;;;5.09;98.62;99609.28;5019457;28;20048;-44
2022/02/21 11:11:12;;;;;;;16.80;4.80;;;;;;;5.19;98.15;99586.91;5014561;28;20046;-44
2022/02/21 11:13:43;;;;;;;14.20;4.37;;;;;;;5.23;97.58;99580.72;5013210;28;20448;-45
2022/02/21 11:16:12;;;;;;;17.58;5.28;;;;;;;5.22;98.03;99578.28;5013006;28;20699;-45
2022/02/21 11:18:40;;;;;;;15.50;4.35;;;;;;;5.52;100.00;99581.09;5021465;28;20073;-44
2022/02/21 11:21:09;;;;;;;14.15;3.80;;;;;;;5.40;98.41;99569.72;5015618;28;20038;-44
2022/02/21 11:23:48;;;;;;;15.95;4.70;;;;;;;5.21;98.85;99587.47;4731605;28;10001172;-42
2022/02/21 11:26:26;;;;;;;13.35;4.13;;;;;;;5.30;99.21;99569.69;5010826;28;20609;-46
2022/02/21 11:29:05;;;;;;;19.52;5.10;;;;;;;5.28;99.20;99575.34;5011829;28;20042;-44
2022/02/21 11:31:33;;;;;;;16.70;4.45;;;;;;;5.35;99.85;99575.09;5010814;28;20064;-45
2022/02/21 11:34:05;;;;;;;23.75;5.00;;;;;;;5.34;100.00;99573.50;5010757;28;20050;-46
2022/02/21 11:36:34;;;;;;;12.70;4.03;;;;;;;5.34;100.00;99568.09;4995871;28;20127;-45
2022/02/21 11:39:24;;;;;;;13.98;4.90;;;;;;;5.35;100.00;99575.09;5021061;28;20048;-46
2022/02/21 11:42:16;;;;;;;16.92;4.50;;;;;;;5.38;100.00;99555.66;5010296;28;20096;-45